sensor_id;sensor_type;location;lat;lon;timestamp;P1;durP1;ratioP1;P2;durP2;ratioP2
9948;SDS011;5013;51.840;8.276;2024-01-11T00:00:40;73.17;;;36.30;;
9948;SDS011;5013;51.840;8.276;2024-01-11T00:03:06;71.90;;;36.47;;
9948;SDS011;5013;51.840;8.276;2024-01-11T00:05:31;77.10;;;38.60;;
9948;SDS011;5013;51.840;8.276;2024-01-11T00:07:57;74.27;;;38.00;;
9948;SDS011;5013;51.840;8.276;2024-01-11T00:10:22;77.50;;;38.93;;
9948;SDS011;5013;51.840;8.276;2024-01-11T00:12:48;68.43;;;36.20;;
9948;SDS011;5013;51.840;8.276;2024-01-11T00:15:13;65.43;;;35.27;;
9948;SDS011;5013;51.840;8.276;2024-01-11T00:17:39;67.53;;;34.67;;
9948;SDS011;5013;51.840;8.276;2024-01-11T00:20:05;70.37;;;35.33;;
9948;SDS011;5013;51.840;8.276;2024-01-11T00:22:31;63.83;;;34.30;;
9948;SDS011;5013;51.840;8.276;2024-01-11T00:24:57;69.13;;;34.97;;
9948;SDS011;5013;51.840;8.276;2024-01-11T00:27:22;66.27;;;35.47;;
9948;SDS011;5013;51.840;8.276;2024-01-11T00:29:48;70.07;;;36.93;;
9948;SDS011;5013;51.840;8.276;2024-01-11T00:32:14;61.80;;;34.67;;
9948;SDS011;5013;51.840;8.276;2024-01-11T00:34:39;66.00;;;35.97;;
9948;SDS011;5013;51.840;8.276;2024-01-11T00:37:05;70.83;;;37.87;;
9948;SDS011;5013;51.840;8.276;2024-01-11T00:39:30;74.57;;;35.63;;
9948;SDS011;5013;51.840;8.276;2024-01-11T00:41:56;72.00;;;35.77;;
9948;SDS011;5013;51.840;8.276;2024-01-11T00:44:21;69.03;;;37.43;;
9948;SDS011;5013;51.840;8.276;2024-01-11T00:46:47;65.57;;;35.30;;
9948;SDS011;5013;51.840;8.276;2024-01-11T00:49:13;63.20;;;34.83;;
9948;SDS011;5013;51.840;8.276;2024-01-11T00:51:38;72.70;;;36.23;;
9948;SDS011;5013;51.840;8.276;2024-01-11T00:54:04;69.77;;;35.57;;
9948;SDS011;5013;51.840;8.276;2024-01-11T00:56:30;70.63;;;35.53;;
9948;SDS011;5013;51.840;8.276;2024-01-11T00:58:55;67.10;;;36.10;;
9948;SDS011;5013;51.840;8.276;2024-01-11T01:01:21;66.13;;;35.43;;
9948;SDS011;5013;51.840;8.276;2024-01-11T01:03:46;70.13;;;35.83;;
9948;SDS011;5013;51.840;8.276;2024-01-11T01:06:12;67.53;;;33.87;;
9948;SDS011;5013;51.840;8.276;2024-01-11T01:08:37;68.87;;;35.87;;
9948;SDS011;5013;51.840;8.276;2024-01-11T01:11:03;74.33;;;35.90;;
9948;SDS011;5013;51.840;8.276;2024-01-11T01:13:28;74.57;;;38.30;;
9948;SDS011;5013;51.840;8.276;2024-01-11T01:15:54;67.23;;;35.17;;
9948;SDS011;5013;51.840;8.276;2024-01-11T01:18:20;74.50;;;34.80;;
9948;SDS011;5013;51.840;8.276;2024-01-11T01:20:45;71.50;;;37.03;;
9948;SDS011;5013;51.840;8.276;2024-01-11T01:23:11;77.23;;;37.10;;
9948;SDS011;5013;51.840;8.276;2024-01-11T01:25:36;79.30;;;35.13;;
9948;SDS011;5013;51.840;8.276;2024-01-11T01:28:02;75.20;;;38.20;;
9948;SDS011;5013;51.840;8.276;2024-01-11T01:30:28;77.57;;;39.17;;
9948;SDS011;5013;51.840;8.276;2024-01-11T01:32:53;80.70;;;39.37;;
9948;SDS011;5013;51.840;8.276;2024-01-11T01:35:19;82.13;;;39.17;;
9948;SDS011;5013;51.840;8.276;2024-01-11T01:37:45;77.97;;;38.10;;
9948;SDS011;5013;51.840;8.276;2024-01-11T01:40:11;73.03;;;37.00;;
9948;SDS011;5013;51.840;8.276;2024-01-11T01:42:43;67.80;;;34.87;;
9948;SDS011;5013;51.840;8.276;2024-01-11T01:45:10;65.63;;;34.03;;
9948;SDS011;5013;51.840;8.276;2024-01-11T01:47:36;75.13;;;38.27;;
9948;SDS011;5013;51.840;8.276;2024-01-11T01:50:04;74.93;;;36.67;;
9948;SDS011;5013;51.840;8.276;2024-01-11T01:52:31;69.40;;;35.77;;
9948;SDS011;5013;51.840;8.276;2024-01-11T01:54:58;66.73;;;34.43;;
9948;SDS011;5013;51.840;8.276;2024-01-11T01:57:24;68.67;;;35.80;;
9948;SDS011;5013;51.840;8.276;2024-01-11T01:59:50;71.67;;;35.70;;
9948;SDS011;5013;51.840;8.276;2024-01-11T02:02:20;70.27;;;36.60;;
9948;SDS011;5013;51.840;8.276;2024-01-11T02:04:46;69.77;;;36.40;;
9948;SDS011;5013;51.840;8.276;2024-01-11T02:07:12;78.20;;;38.00;;
9948;SDS011;5013;51.840;8.276;2024-01-11T02:09:38;72.63;;;38.83;;
9948;SDS011;5013;51.840;8.276;2024-01-11T02:12:05;71.33;;;37.27;;
9948;SDS011;5013;51.840;8.276;2024-01-11T02:14:31;76.23;;;38.50;;
9948;SDS011;5013;51.840;8.276;2024-01-11T02:16:57;70.87;;;36.27;;
9948;SDS011;5013;51.840;8.276;2024-01-11T02:19:23;73.47;;;36.87;;
9948;SDS011;5013;51.840;8.276;2024-01-11T02:21:49;66.97;;;35.43;;
9948;SDS011;5013;51.840;8.276;2024-01-11T02:24:18;68.17;;;36.40;;
9948;SDS011;5013;51.840;8.276;2024-01-11T02:29:26;73.63;;;37.57;;
9948;SDS011;5013;51.840;8.276;2024-01-11T02:31:52;72.83;;;36.20;;
9948;SDS011;5013;51.840;8.276;2024-01-11T02:34:19;70.97;;;35.43;;
9948;SDS011;5013;51.840;8.276;2024-01-11T02:36:45;70.87;;;35.13;;
9948;SDS011;5013;51.840;8.276;2024-01-11T02:39:11;66.07;;;33.83;;
9948;SDS011;5013;51.840;8.276;2024-01-11T02:41:38;69.07;;;34.03;;
9948;SDS011;5013;51.840;8.276;2024-01-11T02:44:03;71.93;;;36.03;;
9948;SDS011;5013;51.840;8.276;2024-01-11T02:46:29;73.90;;;37.63;;
9948;SDS011;5013;51.840;8.276;2024-01-11T02:48:55;69.23;;;36.07;;
9948;SDS011;5013;51.840;8.276;2024-01-11T02:51:21;82.57;;;38.80;;
9948;SDS011;5013;51.840;8.276;2024-01-11T02:53:46;78.20;;;36.90;;
9948;SDS011;5013;51.840;8.276;2024-01-11T02:56:12;76.33;;;36.10;;
9948;SDS011;5013;51.840;8.276;2024-01-11T02:58:37;75.33;;;36.23;;
9948;SDS011;5013;51.840;8.276;2024-01-11T03:01:03;71.17;;;38.40;;
9948;SDS011;5013;51.840;8.276;2024-01-11T03:03:28;79.33;;;38.73;;
9948;SDS011;5013;51.840;8.276;2024-01-11T03:05:54;82.50;;;39.30;;
9948;SDS011;5013;51.840;8.276;2024-01-11T03:08:19;81.53;;;38.00;;
9948;SDS011;5013;51.840;8.276;2024-01-11T03:10:45;74.60;;;35.00;;
9948;SDS011;5013;51.840;8.276;2024-01-11T03:13:11;75.23;;;38.17;;
9948;SDS011;5013;51.840;8.276;2024-01-11T03:15:37;74.63;;;38.10;;
9948;SDS011;5013;51.840;8.276;2024-01-11T03:18:03;79.80;;;38.83;;
9948;SDS011;5013;51.840;8.276;2024-01-11T03:20:29;78.97;;;40.33;;
9948;SDS011;5013;51.840;8.276;2024-01-11T03:22:54;73.50;;;36.03;;
9948;SDS011;5013;51.840;8.276;2024-01-11T03:25:20;74.07;;;37.47;;
9948;SDS011;5013;51.840;8.276;2024-01-11T03:27:45;78.67;;;40.00;;
9948;SDS011;5013;51.840;8.276;2024-01-11T03:30:11;74.80;;;38.80;;
9948;SDS011;5013;51.840;8.276;2024-01-11T03:32:37;77.53;;;36.63;;
9948;SDS011;5013;51.840;8.276;2024-01-11T03:35:04;76.00;;;37.73;;
9948;SDS011;5013;51.840;8.276;2024-01-11T03:37:33;76.63;;;39.87;;
9948;SDS011;5013;51.840;8.276;2024-01-11T03:40:00;75.73;;;37.67;;
9948;SDS011;5013;51.840;8.276;2024-01-11T03:42:26;71.90;;;36.53;;
9948;SDS011;5013;51.840;8.276;2024-01-11T03:44:51;79.80;;;39.23;;
9948;SDS011;5013;51.840;8.276;2024-01-11T03:47:17;75.10;;;37.57;;
9948;SDS011;5013;51.840;8.276;2024-01-11T03:49:43;77.83;;;39.20;;
9948;SDS011;5013;51.840;8.276;2024-01-11T03:52:09;79.20;;;38.87;;
9948;SDS011;5013;51.840;8.276;2024-01-11T03:54:34;76.57;;;37.67;;
9948;SDS011;5013;51.840;8.276;2024-01-11T03:57:00;73.50;;;36.50;;
9948;SDS011;5013;51.840;8.276;2024-01-11T03:59:25;75.77;;;38.53;;
9948;SDS011;5013;51.840;8.276;2024-01-11T04:01:51;74.90;;;38.43;;
9948;SDS011;5013;51.840;8.276;2024-01-11T04:04:17;79.47;;;39.60;;
9948;SDS011;5013;51.840;8.276;2024-01-11T04:06:43;81.03;;;39.80;;
9948;SDS011;5013;51.840;8.276;2024-01-11T04:09:09;84.53;;;39.83;;
9948;SDS011;5013;51.840;8.276;2024-01-11T04:11:35;86.37;;;41.40;;
9948;SDS011;5013;51.840;8.276;2024-01-11T04:14:01;87.67;;;40.73;;
9948;SDS011;5013;51.840;8.276;2024-01-11T04:16:27;77.40;;;40.67;;
9948;SDS011;5013;51.840;8.276;2024-01-11T04:18:52;83.20;;;40.87;;
9948;SDS011;5013;51.840;8.276;2024-01-11T04:21:22;83.17;;;42.53;;
9948;SDS011;5013;51.840;8.276;2024-01-11T04:23:55;86.93;;;42.20;;
9948;SDS011;5013;51.840;8.276;2024-01-11T04:26:21;78.03;;;39.30;;
9948;SDS011;5013;51.840;8.276;2024-01-11T04:28:47;78.70;;;40.77;;
9948;SDS011;5013;51.840;8.276;2024-01-11T04:31:15;68.30;;;36.23;;
9948;SDS011;5013;51.840;8.276;2024-01-11T04:33:44;74.97;;;38.20;;
9948;SDS011;5013;51.840;8.276;2024-01-11T04:36:10;78.57;;;38.23;;
9948;SDS011;5013;51.840;8.276;2024-01-11T04:38:36;72.10;;;37.93;;
9948;SDS011;5013;51.840;8.276;2024-01-11T04:41:06;76.83;;;39.17;;
9948;SDS011;5013;51.840;8.276;2024-01-11T04:43:33;76.60;;;40.17;;
9948;SDS011;5013;51.840;8.276;2024-01-11T04:46:00;71.20;;;38.30;;
9948;SDS011;5013;51.840;8.276;2024-01-11T04:48:25;76.80;;;38.70;;
9948;SDS011;5013;51.840;8.276;2024-01-11T04:50:51;76.80;;;41.13;;
9948;SDS011;5013;51.840;8.276;2024-01-11T04:53:16;76.40;;;39.97;;
9948;SDS011;5013;51.840;8.276;2024-01-11T04:55:42;70.37;;;37.83;;
9948;SDS011;5013;51.840;8.276;2024-01-11T04:58:07;73.37;;;38.30;;
9948;SDS011;5013;51.840;8.276;2024-01-11T05:00:33;77.47;;;40.60;;
9948;SDS011;5013;51.840;8.276;2024-01-11T05:02:58;86.57;;;40.97;;
9948;SDS011;5013;51.840;8.276;2024-01-11T05:05:24;83.37;;;41.23;;
9948;SDS011;5013;51.840;8.276;2024-01-11T05:07:50;70.03;;;37.63;;
9948;SDS011;5013;51.840;8.276;2024-01-11T05:10:16;73.27;;;37.30;;
9948;SDS011;5013;51.840;8.276;2024-01-11T05:12:41;76.10;;;37.97;;
9948;SDS011;5013;51.840;8.276;2024-01-11T05:15:07;71.80;;;38.83;;
9948;SDS011;5013;51.840;8.276;2024-01-11T05:17:33;69.03;;;38.43;;
9948;SDS011;5013;51.840;8.276;2024-01-11T05:19:58;78.97;;;41.90;;
9948;SDS011;5013;51.840;8.276;2024-01-11T05:22:24;77.10;;;40.70;;
9948;SDS011;5013;51.840;8.276;2024-01-11T05:24:49;83.53;;;40.80;;
9948;SDS011;5013;51.840;8.276;2024-01-11T05:27:15;96.23;;;47.43;;
9948;SDS011;5013;51.840;8.276;2024-01-11T05:29:41;99.70;;;47.20;;
9948;SDS011;5013;51.840;8.276;2024-01-11T05:32:06;88.73;;;44.37;;
9948;SDS011;5013;51.840;8.276;2024-01-11T05:34:32;92.17;;;42.07;;
9948;SDS011;5013;51.840;8.276;2024-01-11T05:36:58;85.40;;;41.77;;
9948;SDS011;5013;51.840;8.276;2024-01-11T05:39:24;86.97;;;41.93;;
9948;SDS011;5013;51.840;8.276;2024-01-11T05:41:49;83.53;;;40.63;;
9948;SDS011;5013;51.840;8.276;2024-01-11T05:44:15;84.43;;;41.90;;
9948;SDS011;5013;51.840;8.276;2024-01-11T05:46:40;84.17;;;40.97;;
9948;SDS011;5013;51.840;8.276;2024-01-11T05:49:06;76.20;;;40.43;;
9948;SDS011;5013;51.840;8.276;2024-01-11T05:51:32;82.63;;;41.87;;
9948;SDS011;5013;51.840;8.276;2024-01-11T05:53:58;78.83;;;41.33;;
9948;SDS011;5013;51.840;8.276;2024-01-11T05:56:23;83.83;;;42.60;;
9948;SDS011;5013;51.840;8.276;2024-01-11T05:58:49;79.27;;;39.57;;
9948;SDS011;5013;51.840;8.276;2024-01-11T06:01:14;81.87;;;42.10;;
9948;SDS011;5013;51.840;8.276;2024-01-11T06:03:40;80.37;;;39.60;;
9948;SDS011;5013;51.840;8.276;2024-01-11T06:06:05;88.20;;;41.60;;
9948;SDS011;5013;51.840;8.276;2024-01-11T06:08:32;82.70;;;40.50;;
9948;SDS011;5013;51.840;8.276;2024-01-11T06:10:58;81.17;;;38.17;;
9948;SDS011;5013;51.840;8.276;2024-01-11T06:13:23;78.07;;;38.77;;
9948;SDS011;5013;51.840;8.276;2024-01-11T06:15:49;80.37;;;41.50;;
9948;SDS011;5013;51.840;8.276;2024-01-11T06:18:15;75.53;;;40.67;;
9948;SDS011;5013;51.840;8.276;2024-01-11T06:20:41;87.07;;;41.67;;
9948;SDS011;5013;51.840;8.276;2024-01-11T06:23:06;75.90;;;40.37;;
9948;SDS011;5013;51.840;8.276;2024-01-11T06:25:32;73.43;;;40.03;;
9948;SDS011;5013;51.840;8.276;2024-01-11T06:27:57;81.83;;;39.43;;
9948;SDS011;5013;51.840;8.276;2024-01-11T06:30:23;84.60;;;41.77;;
9948;SDS011;5013;51.840;8.276;2024-01-11T06:32:51;77.50;;;40.17;;
9948;SDS011;5013;51.840;8.276;2024-01-11T06:35:17;83.57;;;40.83;;
9948;SDS011;5013;51.840;8.276;2024-01-11T06:37:43;74.77;;;38.50;;
9948;SDS011;5013;51.840;8.276;2024-01-11T06:40:08;81.97;;;39.47;;
9948;SDS011;5013;51.840;8.276;2024-01-11T06:42:34;80.30;;;39.03;;
9948;SDS011;5013;51.840;8.276;2024-01-11T06:45:00;80.67;;;40.90;;
9948;SDS011;5013;51.840;8.276;2024-01-11T06:47:26;76.37;;;40.27;;
9948;SDS011;5013;51.840;8.276;2024-01-11T06:49:51;82.20;;;40.83;;
9948;SDS011;5013;51.840;8.276;2024-01-11T06:52:17;73.23;;;38.87;;
9948;SDS011;5013;51.840;8.276;2024-01-11T06:54:44;78.93;;;41.27;;
9948;SDS011;5013;51.840;8.276;2024-01-11T06:57:10;83.03;;;40.30;;
9948;SDS011;5013;51.840;8.276;2024-01-11T06:59:35;86.67;;;41.17;;
9948;SDS011;5013;51.840;8.276;2024-01-11T07:02:01;79.33;;;38.67;;
9948;SDS011;5013;51.840;8.276;2024-01-11T07:04:27;82.07;;;39.90;;
9948;SDS011;5013;51.840;8.276;2024-01-11T07:06:53;86.43;;;41.07;;
9948;SDS011;5013;51.840;8.276;2024-01-11T07:09:18;76.90;;;40.43;;
9948;SDS011;5013;51.840;8.276;2024-01-11T07:11:45;86.43;;;42.60;;
9948;SDS011;5013;51.840;8.276;2024-01-11T07:14:10;85.53;;;43.93;;
9948;SDS011;5013;51.840;8.276;2024-01-11T07:16:36;80.87;;;42.07;;
9948;SDS011;5013;51.840;8.276;2024-01-11T07:19:02;89.87;;;42.70;;
9948;SDS011;5013;51.840;8.276;2024-01-11T07:21:27;81.87;;;42.47;;
9948;SDS011;5013;51.840;8.276;2024-01-11T07:23:57;86.07;;;40.90;;
9948;SDS011;5013;51.840;8.276;2024-01-11T07:26:23;118.57;;;53.50;;
9948;SDS011;5013;51.840;8.276;2024-01-11T07:28:49;133.87;;;58.93;;
9948;SDS011;5013;51.840;8.276;2024-01-11T07:31:15;100.97;;;46.97;;
9948;SDS011;5013;51.840;8.276;2024-01-11T07:33:41;94.47;;;46.47;;
9948;SDS011;5013;51.840;8.276;2024-01-11T07:36:06;99.87;;;47.53;;
9948;SDS011;5013;51.840;8.276;2024-01-11T07:38:32;90.13;;;46.23;;
9948;SDS011;5013;51.840;8.276;2024-01-11T07:40:58;88.57;;;44.47;;
9948;SDS011;5013;51.840;8.276;2024-01-11T07:43:23;86.90;;;43.27;;
9948;SDS011;5013;51.840;8.276;2024-01-11T07:45:49;90.20;;;44.93;;
9948;SDS011;5013;51.840;8.276;2024-01-11T07:48:15;78.50;;;41.30;;
9948;SDS011;5013;51.840;8.276;2024-01-11T07:50:40;82.97;;;42.63;;
9948;SDS011;5013;51.840;8.276;2024-01-11T07:53:06;89.67;;;45.20;;
9948;SDS011;5013;51.840;8.276;2024-01-11T07:55:32;89.60;;;43.93;;
9948;SDS011;5013;51.840;8.276;2024-01-11T07:57:57;96.30;;;47.80;;
9948;SDS011;5013;51.840;8.276;2024-01-11T08:00:23;94.03;;;46.93;;
9948;SDS011;5013;51.840;8.276;2024-01-11T08:02:49;91.93;;;48.77;;
9948;SDS011;5013;51.840;8.276;2024-01-11T08:05:14;93.67;;;47.53;;
9948;SDS011;5013;51.840;8.276;2024-01-11T08:07:40;91.87;;;47.50;;
9948;SDS011;5013;51.840;8.276;2024-01-11T08:10:07;110.07;;;50.67;;
9948;SDS011;5013;51.840;8.276;2024-01-11T08:12:34;184.70;;;75.37;;
9948;SDS011;5013;51.840;8.276;2024-01-11T08:15:00;130.93;;;58.77;;
9948;SDS011;5013;51.840;8.276;2024-01-11T08:17:25;102.37;;;49.67;;
9948;SDS011;5013;51.840;8.276;2024-01-11T08:19:51;110.00;;;52.47;;
9948;SDS011;5013;51.840;8.276;2024-01-11T08:22:16;88.10;;;45.23;;
9948;SDS011;5013;51.840;8.276;2024-01-11T08:24:42;88.23;;;45.17;;
9948;SDS011;5013;51.840;8.276;2024-01-11T08:27:08;86.23;;;42.60;;
9948;SDS011;5013;51.840;8.276;2024-01-11T08:29:33;79.57;;;40.70;;
9948;SDS011;5013;51.840;8.276;2024-01-11T08:31:59;77.83;;;42.10;;
9948;SDS011;5013;51.840;8.276;2024-01-11T08:34:29;85.93;;;43.83;;
9948;SDS011;5013;51.840;8.276;2024-01-11T08:36:54;81.33;;;43.50;;
9948;SDS011;5013;51.840;8.276;2024-01-11T08:39:20;91.53;;;46.67;;
9948;SDS011;5013;51.840;8.276;2024-01-11T08:41:46;105.30;;;50.57;;
9948;SDS011;5013;51.840;8.276;2024-01-11T08:44:12;92.13;;;48.30;;
9948;SDS011;5013;51.840;8.276;2024-01-11T08:46:38;89.90;;;45.20;;
9948;SDS011;5013;51.840;8.276;2024-01-11T08:49:03;108.20;;;49.97;;
9948;SDS011;5013;51.840;8.276;2024-01-11T08:51:29;80.60;;;42.97;;
9948;SDS011;5013;51.840;8.276;2024-01-11T08:53:55;88.57;;;42.17;;
9948;SDS011;5013;51.840;8.276;2024-01-11T08:56:21;82.30;;;43.17;;
9948;SDS011;5013;51.840;8.276;2024-01-11T08:58:47;83.70;;;42.53;;
9948;SDS011;5013;51.840;8.276;2024-01-11T09:01:13;84.00;;;44.20;;
9948;SDS011;5013;51.840;8.276;2024-01-11T09:03:39;79.90;;;42.43;;
9948;SDS011;5013;51.840;8.276;2024-01-11T09:06:05;79.27;;;41.23;;
9948;SDS011;5013;51.840;8.276;2024-01-11T09:08:31;88.87;;;43.60;;
9948;SDS011;5013;51.840;8.276;2024-01-11T09:10:56;83.60;;;44.63;;
9948;SDS011;5013;51.840;8.276;2024-01-11T09:13:25;85.90;;;44.30;;
9948;SDS011;5013;51.840;8.276;2024-01-11T09:15:51;90.53;;;45.07;;
9948;SDS011;5013;51.840;8.276;2024-01-11T09:18:17;90.87;;;44.20;;
9948;SDS011;5013;51.840;8.276;2024-01-11T09:20:43;88.13;;;43.03;;
9948;SDS011;5013;51.840;8.276;2024-01-11T09:23:09;81.50;;;42.90;;
9948;SDS011;5013;51.840;8.276;2024-01-11T09:25:34;80.77;;;42.60;;
9948;SDS011;5013;51.840;8.276;2024-01-11T09:28:00;86.97;;;44.63;;
9948;SDS011;5013;51.840;8.276;2024-01-11T09:30:25;87.20;;;43.03;;
9948;SDS011;5013;51.840;8.276;2024-01-11T09:32:51;80.87;;;42.60;;
9948;SDS011;5013;51.840;8.276;2024-01-11T09:35:17;83.30;;;42.50;;
9948;SDS011;5013;51.840;8.276;2024-01-11T09:37:43;79.77;;;42.37;;
9948;SDS011;5013;51.840;8.276;2024-01-11T09:40:11;84.53;;;43.77;;
9948;SDS011;5013;51.840;8.276;2024-01-11T09:42:37;82.30;;;43.87;;
9948;SDS011;5013;51.840;8.276;2024-01-11T09:45:12;78.83;;;42.53;;
9948;SDS011;5013;51.840;8.276;2024-01-11T09:47:40;85.17;;;42.57;;
9948;SDS011;5013;51.840;8.276;2024-01-11T09:50:07;79.37;;;41.20;;
9948;SDS011;5013;51.840;8.276;2024-01-11T09:52:33;77.27;;;40.80;;
9948;SDS011;5013;51.840;8.276;2024-01-11T09:54:59;71.60;;;40.37;;
9948;SDS011;5013;51.840;8.276;2024-01-11T09:57:26;78.60;;;42.43;;
9948;SDS011;5013;51.840;8.276;2024-01-11T09:59:54;75.07;;;40.40;;
9948;SDS011;5013;51.840;8.276;2024-01-11T10:02:22;81.60;;;42.03;;
9948;SDS011;5013;51.840;8.276;2024-01-11T10:04:49;83.07;;;40.27;;
9948;SDS011;5013;51.840;8.276;2024-01-11T10:07:17;74.40;;;40.70;;
9948;SDS011;5013;51.840;8.276;2024-01-11T10:09:46;66.90;;;37.80;;
9948;SDS011;5013;51.840;8.276;2024-01-11T10:12:12;67.63;;;36.10;;
9948;SDS011;5013;51.840;8.276;2024-01-11T10:14:38;65.93;;;36.50;;
9948;SDS011;5013;51.840;8.276;2024-01-11T10:17:04;65.83;;;35.57;;
9948;SDS011;5013;51.840;8.276;2024-01-11T10:19:30;67.10;;;36.77;;
9948;SDS011;5013;51.840;8.276;2024-01-11T10:21:56;64.10;;;34.93;;
9948;SDS011;5013;51.840;8.276;2024-01-11T10:24:23;71.83;;;39.17;;
9948;SDS011;5013;51.840;8.276;2024-01-11T10:26:51;67.00;;;37.17;;
9948;SDS011;5013;51.840;8.276;2024-01-11T10:29:21;78.73;;;39.80;;
9948;SDS011;5013;51.840;8.276;2024-01-11T10:31:46;66.40;;;37.37;;
9948;SDS011;5013;51.840;8.276;2024-01-11T10:34:12;70.93;;;38.90;;
9948;SDS011;5013;51.840;8.276;2024-01-11T10:36:38;73.33;;;39.50;;
9948;SDS011;5013;51.840;8.276;2024-01-11T10:39:05;74.13;;;38.47;;
9948;SDS011;5013;51.840;8.276;2024-01-11T10:41:38;70.63;;;38.97;;
9948;SDS011;5013;51.840;8.276;2024-01-11T10:44:07;73.30;;;39.27;;
9948;SDS011;5013;51.840;8.276;2024-01-11T10:46:43;66.87;;;36.10;;
9948;SDS011;5013;51.840;8.276;2024-01-11T10:49:10;69.33;;;36.57;;
9948;SDS011;5013;51.840;8.276;2024-01-11T10:51:40;64.80;;;35.70;;
9948;SDS011;5013;51.840;8.276;2024-01-11T10:54:07;61.67;;;35.20;;
9948;SDS011;5013;51.840;8.276;2024-01-11T10:56:34;70.20;;;34.70;;
9948;SDS011;5013;51.840;8.276;2024-01-11T10:59:00;61.03;;;34.57;;
9948;SDS011;5013;51.840;8.276;2024-01-11T11:01:27;71.67;;;37.63;;
9948;SDS011;5013;51.840;8.276;2024-01-11T11:03:53;73.17;;;38.80;;
9948;SDS011;5013;51.840;8.276;2024-01-11T11:06:20;70.50;;;37.93;;
9948;SDS011;5013;51.840;8.276;2024-01-11T11:08:48;62.17;;;35.83;;
9948;SDS011;5013;51.840;8.276;2024-01-11T11:11:15;67.00;;;36.87;;
9948;SDS011;5013;51.840;8.276;2024-01-11T11:13:43;69.63;;;36.47;;
9948;SDS011;5013;51.840;8.276;2024-01-11T11:16:14;64.33;;;35.93;;
9948;SDS011;5013;51.840;8.276;2024-01-11T11:18:40;55.30;;;33.80;;
9948;SDS011;5013;51.840;8.276;2024-01-11T11:21:08;58.77;;;34.80;;
9948;SDS011;5013;51.840;8.276;2024-01-11T11:23:35;56.27;;;33.40;;
9948;SDS011;5013;51.840;8.276;2024-01-11T11:26:02;60.23;;;34.47;;
9948;SDS011;5013;51.840;8.276;2024-01-11T11:28:30;57.63;;;32.10;;
9948;SDS011;5013;51.840;8.276;2024-01-11T11:30:59;62.90;;;32.70;;
9948;SDS011;5013;51.840;8.276;2024-01-11T11:33:25;64.17;;;31.97;;
9948;SDS011;5013;51.840;8.276;2024-01-11T11:35:58;57.67;;;32.97;;
9948;SDS011;5013;51.840;8.276;2024-01-11T11:38:25;53.47;;;29.37;;
9948;SDS011;5013;51.840;8.276;2024-01-11T11:40:54;60.30;;;31.33;;
9948;SDS011;5013;51.840;8.276;2024-01-11T11:43:21;45.97;;;29.07;;
9948;SDS011;5013;51.840;8.276;2024-01-11T11:45:48;48.37;;;27.90;;
9948;SDS011;5013;51.840;8.276;2024-01-11T11:53:38;46.50;;;28.20;;
9948;SDS011;5013;51.840;8.276;2024-01-11T11:56:06;44.20;;;26.17;;
9948;SDS011;5013;51.840;8.276;2024-01-11T11:58:34;40.67;;;22.60;;
9948;SDS011;5013;51.840;8.276;2024-01-11T12:01:01;42.90;;;24.67;;
9948;SDS011;5013;51.840;8.276;2024-01-11T12:03:33;37.40;;;23.53;;
9948;SDS011;5013;51.840;8.276;2024-01-11T12:06:04;41.90;;;25.20;;
9948;SDS011;5013;51.840;8.276;2024-01-11T12:08:31;43.27;;;24.17;;
9948;SDS011;5013;51.840;8.276;2024-01-11T12:10:57;38.00;;;24.07;;
9948;SDS011;5013;51.840;8.276;2024-01-11T12:13:23;39.13;;;22.93;;
9948;SDS011;5013;51.840;8.276;2024-01-11T12:15:49;38.10;;;21.37;;
9948;SDS011;5013;51.840;8.276;2024-01-11T12:18:15;41.17;;;22.60;;
9948;SDS011;5013;51.840;8.276;2024-01-11T12:20:41;32.70;;;20.33;;
9948;SDS011;5013;51.840;8.276;2024-01-11T12:23:06;35.70;;;21.93;;
9948;SDS011;5013;51.840;8.276;2024-01-11T12:25:32;37.03;;;21.80;;
9948;SDS011;5013;51.840;8.276;2024-01-11T12:27:58;36.93;;;21.87;;
9948;SDS011;5013;51.840;8.276;2024-01-11T12:30:25;32.57;;;19.53;;
9948;SDS011;5013;51.840;8.276;2024-01-11T12:32:51;33.07;;;19.40;;
9948;SDS011;5013;51.840;8.276;2024-01-11T12:35:20;34.87;;;21.27;;
9948;SDS011;5013;51.840;8.276;2024-01-11T12:37:59;35.23;;;20.80;;
9948;SDS011;5013;51.840;8.276;2024-01-11T12:40:32;36.80;;;20.73;;
9948;SDS011;5013;51.840;8.276;2024-01-11T12:42:59;32.87;;;20.03;;
9948;SDS011;5013;51.840;8.276;2024-01-11T12:45:25;31.30;;;18.27;;
9948;SDS011;5013;51.840;8.276;2024-01-11T12:47:51;34.17;;;21.13;;
9948;SDS011;5013;51.840;8.276;2024-01-11T12:50:18;38.87;;;21.20;;
9948;SDS011;5013;51.840;8.276;2024-01-11T12:52:45;35.37;;;19.40;;
9948;SDS011;5013;51.840;8.276;2024-01-11T12:55:18;39.57;;;19.73;;
9948;SDS011;5013;51.840;8.276;2024-01-11T12:57:44;34.23;;;18.87;;
9948;SDS011;5013;51.840;8.276;2024-01-11T13:00:10;29.80;;;16.73;;
9948;SDS011;5013;51.840;8.276;2024-01-11T13:02:36;40.77;;;20.50;;
9948;SDS011;5013;51.840;8.276;2024-01-11T13:05:02;35.13;;;19.47;;
9948;SDS011;5013;51.840;8.276;2024-01-11T13:07:28;36.77;;;18.30;;
9948;SDS011;5013;51.840;8.276;2024-01-11T13:09:55;33.87;;;19.70;;
9948;SDS011;5013;51.840;8.276;2024-01-11T13:12:21;37.63;;;19.63;;
9948;SDS011;5013;51.840;8.276;2024-01-11T13:14:47;29.90;;;17.70;;
9948;SDS011;5013;51.840;8.276;2024-01-11T13:17:13;35.17;;;18.23;;
9948;SDS011;5013;51.840;8.276;2024-01-11T13:19:39;30.27;;;18.57;;
9948;SDS011;5013;51.840;8.276;2024-01-11T13:22:04;32.27;;;18.30;;
9948;SDS011;5013;51.840;8.276;2024-01-11T13:24:30;29.10;;;16.43;;
9948;SDS011;5013;51.840;8.276;2024-01-11T13:26:56;28.03;;;15.57;;
9948;SDS011;5013;51.840;8.276;2024-01-11T13:29:21;32.50;;;17.43;;
9948;SDS011;5013;51.840;8.276;2024-01-11T13:31:47;34.43;;;17.37;;
9948;SDS011;5013;51.840;8.276;2024-01-11T13:34:12;32.03;;;17.63;;
9948;SDS011;5013;51.840;8.276;2024-01-11T13:36:38;30.67;;;17.23;;
9948;SDS011;5013;51.840;8.276;2024-01-11T13:39:04;35.20;;;18.40;;
9948;SDS011;5013;51.840;8.276;2024-01-11T13:41:29;34.10;;;19.20;;
9948;SDS011;5013;51.840;8.276;2024-01-11T13:43:55;38.37;;;20.33;;
9948;SDS011;5013;51.840;8.276;2024-01-11T13:46:21;34.77;;;19.70;;
9948;SDS011;5013;51.840;8.276;2024-01-11T13:48:46;32.60;;;20.03;;
9948;SDS011;5013;51.840;8.276;2024-01-11T13:51:12;36.43;;;18.30;;
9948;SDS011;5013;51.840;8.276;2024-01-11T13:53:39;35.40;;;18.83;;
9948;SDS011;5013;51.840;8.276;2024-01-11T13:56:04;34.53;;;18.87;;
9948;SDS011;5013;51.840;8.276;2024-01-11T13:58:31;29.93;;;16.93;;
9948;SDS011;5013;51.840;8.276;2024-01-11T14:00:56;34.27;;;17.10;;
9948;SDS011;5013;51.840;8.276;2024-01-11T14:03:22;27.23;;;15.83;;
9948;SDS011;5013;51.840;8.276;2024-01-11T14:05:47;25.97;;;16.17;;
9948;SDS011;5013;51.840;8.276;2024-01-11T14:08:13;37.43;;;20.80;;
9948;SDS011;5013;51.840;8.276;2024-01-11T14:10:38;36.57;;;21.00;;
9948;SDS011;5013;51.840;8.276;2024-01-11T14:13:04;37.37;;;19.03;;
9948;SDS011;5013;51.840;8.276;2024-01-11T14:15:29;37.47;;;20.27;;
9948;SDS011;5013;51.840;8.276;2024-01-11T14:17:58;35.43;;;18.80;;
9948;SDS011;5013;51.840;8.276;2024-01-11T14:20:23;33.10;;;17.27;;
9948;SDS011;5013;51.840;8.276;2024-01-11T14:22:49;36.43;;;18.57;;
9948;SDS011;5013;51.840;8.276;2024-01-11T14:25:15;38.40;;;20.43;;
9948;SDS011;5013;51.840;8.276;2024-01-11T14:27:42;33.10;;;17.80;;
9948;SDS011;5013;51.840;8.276;2024-01-11T14:30:09;34.47;;;18.33;;
9948;SDS011;5013;51.840;8.276;2024-01-11T14:32:36;47.00;;;22.27;;
9948;SDS011;5013;51.840;8.276;2024-01-11T14:35:02;48.97;;;26.03;;
9948;SDS011;5013;51.840;8.276;2024-01-11T14:37:29;47.93;;;23.57;;
9948;SDS011;5013;51.840;8.276;2024-01-11T14:39:55;46.30;;;22.10;;
9948;SDS011;5013;51.840;8.276;2024-01-11T14:42:21;40.60;;;21.00;;
9948;SDS011;5013;51.840;8.276;2024-01-11T14:44:47;40.07;;;22.17;;
9948;SDS011;5013;51.840;8.276;2024-01-11T14:47:12;39.50;;;21.13;;
9948;SDS011;5013;51.840;8.276;2024-01-11T14:49:38;43.30;;;21.07;;